createdAt,value
2023-08-11T00:01:24.821Z,73.89
2023-08-11T00:03:51.416Z,73.79
2023-08-11T00:06:18.126Z,73.55
2023-08-11T00:08:44.886Z,73.71
2023-08-11T00:11:13.428Z,73.95
2023-08-11T00:13:40.017Z,73.55
2023-08-11T00:16:08.304Z,74.16
2023-08-11T00:18:35.000Z,74.52
2023-08-11T00:21:01.648Z,74.43
2023-08-11T00:23:28.227Z,74.33
2023-08-11T00:25:54.889Z,74.67
2023-08-11T00:28:21.536Z,74.29
2023-08-11T00:30:48.263Z,74.16
2023-08-11T00:33:14.892Z,74.66
2023-08-11T00:35:43.287Z,74.08
2023-08-11T00:38:09.906Z,75.20
2023-08-11T00:40:37.933Z,75.18
2023-08-11T00:43:04.630Z,75.40
2023-08-11T00:45:31.489Z,74.33
2023-08-11T00:47:58.445Z,74.68
2023-08-11T00:50:26.578Z,74.72
2023-08-11T00:52:53.760Z,74.20
2023-08-11T00:55:20.765Z,75.18
2023-08-11T00:57:47.760Z,75.42
2023-08-11T01:00:16.082Z,75.62
2023-08-11T01:02:44.528Z,75.89
2023-08-11T01:05:13.127Z,75.85
2023-08-11T01:07:48.231Z,75.68
2023-08-11T01:10:29.677Z,75.23
2023-08-11T01:13:25.262Z,75.81
2023-08-11T01:15:59.730Z,75.63
2023-08-11T01:18:29.361Z,75.36
2023-08-11T01:21:00.740Z,74.90
2023-08-11T01:23:30.564Z,75.82
2023-08-11T01:29:45.794Z,75.78
2023-08-11T01:32:13.140Z,76.33
2023-08-11T01:34:39.717Z,76.32
2023-08-11T01:37:06.597Z,76.39
2023-08-11T01:39:34.226Z,75.91
2023-08-11T01:42:00.981Z,75.56
2023-08-11T01:44:27.927Z,75.39
2023-08-11T01:46:57.738Z,75.56
2023-08-11T01:49:26.571Z,75.85
2023-08-11T01:51:53.829Z,76.76
2023-08-11T01:54:20.689Z,76.85
2023-08-11T01:56:47.993Z,75.81
2023-08-11T01:59:16.559Z,76.40
2023-08-11T02:01:43.532Z,77.21
2023-08-11T02:04:10.173Z,77.29
2023-08-11T02:06:40.830Z,77.37
2023-08-11T02:09:10.057Z,77.43
2023-08-11T02:11:38.426Z,76.67
2023-08-11T02:14:06.163Z,76.20
2023-08-11T02:16:34.711Z,76.55
2023-08-11T02:19:01.481Z,76.87
2023-08-11T02:21:29.196Z,77.17
2023-08-11T02:23:56.013Z,77.29
2023-08-11T02:26:23.575Z,76.47
2023-08-11T02:28:50.609Z,76.42
2023-08-11T02:31:17.283Z,76.97
2023-08-11T02:33:44.695Z,77.32
2023-08-11T02:36:11.472Z,77.03
2023-08-11T02:38:38.223Z,76.98
2023-08-11T02:41:04.875Z,76.33
2023-08-11T02:43:31.511Z,77.64
2023-08-11T02:45:58.162Z,77.05
2023-08-11T02:48:24.896Z,76.39
2023-08-11T02:50:51.492Z,76.87
2023-08-11T02:53:18.081Z,76.37
2023-08-11T02:55:44.869Z,76.66
2023-08-11T02:58:12.706Z,77.31
2023-08-11T03:00:39.294Z,76.75
2023-08-11T03:03:06.004Z,77.03
2023-08-11T03:05:32.868Z,77.06
2023-08-11T03:07:59.653Z,76.31
2023-08-11T03:10:26.313Z,77.01
2023-08-11T03:12:53.012Z,77.18
2023-08-11T03:15:20.436Z,77.06
2023-08-11T03:17:47.591Z,76.98
2023-08-11T03:20:16.134Z,77.75
2023-08-11T03:22:45.648Z,77.33
2023-08-11T03:25:15.239Z,77.85
2023-08-11T03:27:44.156Z,77.26
2023-08-11T03:30:16.501Z,76.74
2023-08-11T03:32:47.268Z,77.97
2023-08-11T03:35:15.665Z,77.99
2023-08-11T03:37:42.371Z,78.84
2023-08-11T03:40:14.007Z,77.70
2023-08-11T03:42:44.744Z,77.90
2023-08-11T03:45:13.725Z,77.96
2023-08-11T03:47:42.650Z,78.54
2023-08-11T03:50:14.991Z,78.25
2023-08-11T03:52:41.616Z,79.12
2023-08-11T03:55:10.730Z,78.82
2023-08-11T03:57:39.097Z,78.30
2023-08-11T04:00:10.950Z,78.26
2023-08-11T04:02:40.166Z,78.46
2023-08-11T04:05:11.264Z,79.05
2023-08-11T04:07:38.442Z,78.20
2023-08-11T04:10:05.875Z,77.92
2023-08-11T04:12:33.151Z,78.53
2023-08-11T04:15:00.208Z,79.36
2023-08-11T04:17:27.743Z,79.48
2023-08-11T04:19:57.823Z,79.25
2023-08-11T04:22:38.216Z,78.49
2023-08-11T04:25:06.858Z,78.85
2023-08-11T04:27:33.469Z,79.03
2023-08-11T04:30:00.410Z,78.86
2023-08-11T04:32:27.280Z,79.05
2023-08-11T04:34:53.875Z,78.96
2023-08-11T04:37:21.231Z,79.36
2023-08-11T04:39:47.893Z,79.47
2023-08-11T04:42:14.819Z,79.56
2023-08-11T04:44:41.748Z,79.15
2023-08-11T04:47:08.401Z,79.14
2023-08-11T04:49:36.392Z,78.93
2023-08-11T04:52:03.032Z,79.29
2023-08-11T04:54:29.715Z,79.02
2023-08-11T04:56:56.818Z,79.40
2023-08-11T04:59:23.422Z,79.42
2023-08-11T05:01:50.530Z,78.74
2023-08-11T05:04:17.202Z,78.55
2023-08-11T05:06:44.242Z,79.10
2023-08-11T05:09:10.921Z,79.61
2023-08-11T05:11:38.465Z,79.67
2023-08-11T05:14:05.073Z,80.10
2023-08-11T05:16:31.706Z,79.45
2023-08-11T05:18:58.328Z,79.65
2023-08-11T05:21:24.917Z,79.01
2023-08-11T05:23:51.766Z,79.69
2023-08-11T05:26:18.748Z,79.56
2023-08-11T05:28:45.318Z,79.48
2023-08-11T05:31:12.110Z,79.22
2023-08-11T05:33:39.415Z,78.95
2023-08-11T05:36:06.068Z,78.79
2023-08-11T05:38:32.623Z,79.19
2023-08-11T05:40:59.207Z,79.35
2023-08-11T05:43:25.839Z,79.26
2023-08-11T05:45:52.466Z,78.72
2023-08-11T05:48:19.056Z,78.98
2023-08-11T05:50:46.300Z,78.39
2023-08-11T05:53:13.482Z,78.43
2023-08-11T05:55:40.331Z,79.17
2023-08-11T05:58:07.035Z,79.61
2023-08-11T06:00:33.723Z,79.84
2023-08-11T06:03:00.304Z,79.72
2023-08-11T06:05:27.625Z,79.51
2023-08-11T06:08:05.130Z,78.77
2023-08-11T06:10:33.318Z,78.75
2023-08-11T06:13:00.224Z,78.58
2023-08-11T06:15:27.043Z,78.23
2023-08-11T06:17:53.736Z,78.01
2023-08-11T06:20:29.997Z,77.75
2023-08-11T06:23:01.659Z,77.56
2023-08-11T06:25:28.881Z,77.38
2023-08-11T06:27:55.454Z,77.08
2023-08-11T06:30:22.093Z,75.84
2023-08-11T06:32:48.768Z,75.70
2023-08-11T06:35:15.373Z,75.52
2023-08-11T06:37:42.045Z,75.53
2023-08-11T06:40:10.040Z,75.02
2023-08-11T06:42:36.700Z,75.29
2023-08-11T06:45:08.477Z,74.13
2023-08-11T06:47:36.027Z,73.61
2023-08-11T06:50:04.290Z,73.29
2023-08-11T06:52:30.948Z,73.25
2023-08-11T06:54:57.572Z,72.14
2023-08-11T06:57:24.298Z,71.66
2023-08-11T06:59:50.896Z,71.49
2023-08-11T07:02:17.532Z,70.99
2023-08-11T07:04:44.209Z,70.55
2023-08-11T07:07:11.059Z,70.06
2023-08-11T07:09:37.783Z,69.64
2023-08-11T07:12:04.649Z,69.03
2023-08-11T07:14:31.299Z,69.30
2023-08-11T07:16:57.948Z,68.68
2023-08-11T07:19:26.474Z,68.32
2023-08-11T07:21:53.055Z,67.52
2023-08-11T07:24:19.678Z,67.23
2023-08-11T07:26:46.239Z,67.07
2023-08-11T07:29:12.908Z,67.29
2023-08-11T07:31:40.703Z,67.11
2023-08-11T07:34:07.343Z,67.53
2023-08-11T07:36:33.964Z,67.07
2023-08-11T07:39:16.923Z,66.27
2023-08-11T07:41:47.107Z,66.32
2023-08-11T07:44:13.704Z,66.14
2023-08-11T07:46:40.395Z,65.61
2023-08-11T07:49:07.119Z,65.55
2023-08-11T07:51:33.829Z,65.75
2023-08-11T07:54:00.507Z,65.41
2023-08-11T07:56:27.824Z,64.52
2023-08-11T07:58:54.427Z,64.53
2023-08-11T08:01:21.146Z,64.18
2023-08-11T08:03:47.858Z,63.87
2023-08-11T08:06:15.640Z,63.15
2023-08-11T08:08:42.367Z,62.21
2023-08-11T08:11:09.461Z,61.71
2023-08-11T08:13:36.358Z,61.76
2023-08-11T08:16:03.077Z,60.98
2023-08-11T08:18:29.794Z,60.47
2023-08-11T08:20:56.465Z,59.86
2023-08-11T08:23:23.400Z,58.29
2023-08-11T08:25:50.078Z,57.04
2023-08-11T08:28:16.638Z,59.17
2023-08-11T08:30:43.379Z,56.48
2023-08-11T08:33:10.203Z,54.83
2023-08-11T08:35:37.384Z,54.98
2023-08-11T08:38:04.700Z,53.59
2023-08-11T08:40:35.917Z,54.84
2023-08-11T08:43:08.810Z,55.20
2023-08-11T08:45:38.207Z,54.27
2023-08-11T08:48:09.324Z,52.23
2023-08-11T08:50:37.645Z,52.64
2023-08-11T08:53:04.436Z,51.43
2023-08-11T08:55:30.994Z,51.19
2023-08-11T08:57:57.580Z,51.94
2023-08-11T09:00:24.858Z,50.83
2023-08-11T09:02:52.472Z,49.37
2023-08-11T09:05:19.536Z,50.06
2023-08-11T09:07:46.094Z,50.33
2023-08-11T09:10:12.776Z,49.12
2023-08-11T09:12:39.395Z,46.43
2023-08-11T09:15:10.385Z,48.70
2023-08-11T09:17:38.561Z,47.96
2023-08-11T09:20:05.756Z,47.06
2023-08-11T09:22:37.197Z,47.35
2023-08-11T09:25:05.001Z,45.70
2023-08-11T09:27:32.379Z,46.14
2023-08-11T09:29:59.184Z,46.11
2023-08-11T09:32:27.160Z,46.11
2023-08-11T09:34:54.199Z,44.08
2023-08-11T09:37:20.900Z,42.54
2023-08-11T09:39:50.481Z,44.36
2023-08-11T09:42:19.697Z,43.83
2023-08-11T09:44:46.299Z,44.76
2023-08-11T09:47:16.369Z,42.45
2023-08-11T09:49:47.926Z,43.09
2023-08-11T09:52:15.734Z,43.37
2023-08-11T09:54:44.995Z,41.04
2023-08-11T09:57:14.266Z,40.26
2023-08-11T09:59:45.708Z,39.96
2023-08-11T10:02:18.065Z,41.23
2023-08-11T10:04:58.504Z,40.43
2023-08-11T10:07:35.291Z,39.95
2023-08-11T10:10:11.401Z,40.22
2023-08-11T10:12:41.797Z,40.29
2023-08-11T10:15:11.677Z,40.63
2023-08-11T10:17:39.573Z,40.99
2023-08-11T10:20:08.505Z,38.72
2023-08-11T10:22:35.261Z,39.29
2023-08-11T10:25:05.550Z,38.81
2023-08-11T10:27:32.610Z,37.60
2023-08-11T10:29:59.905Z,39.68
2023-08-11T10:32:32.546Z,37.91
2023-08-11T10:34:59.174Z,38.17
2023-08-11T10:37:37.004Z,38.17
2023-08-11T10:40:06.290Z,38.21
2023-08-11T10:42:33.476Z,37.09
2023-08-11T10:45:11.678Z,36.76
2023-08-11T10:48:00.037Z,36.47
2023-08-11T10:50:28.068Z,36.95
2023-08-11T10:53:20.918Z,38.00
2023-08-11T10:56:00.511Z,38.46
2023-08-11T10:58:30.261Z,36.63
2023-08-11T11:00:58.167Z,37.24
2023-08-11T11:03:24.845Z,36.97
2023-08-11T11:05:51.491Z,37.36
2023-08-11T11:08:18.139Z,37.73
2023-08-11T11:10:50.529Z,36.68
2023-08-11T11:13:18.213Z,36.68
2023-08-11T11:15:44.942Z,37.11
2023-08-11T11:18:11.670Z,37.31
2023-08-11T11:20:38.962Z,37.31
2023-08-11T11:23:06.475Z,36.55
2023-08-11T11:25:33.124Z,36.34
2023-08-11T11:27:59.985Z,36.22
2023-08-11T11:30:26.694Z,36.22
2023-08-11T11:32:53.596Z,35.60
2023-08-11T11:35:20.330Z,37.15
2023-08-11T11:37:47.441Z,36.22
2023-08-11T11:40:14.928Z,36.88
2023-08-11T11:42:42.523Z,38.05
2023-08-11T11:45:10.878Z,37.58
2023-08-11T11:47:38.085Z,36.63
2023-08-11T11:50:08.846Z,37.26
2023-08-11T11:52:37.746Z,36.16
2023-08-11T11:55:07.279Z,35.52
2023-08-11T11:57:34.841Z,36.94
2023-08-11T12:00:04.159Z,34.75
2023-08-11T12:02:40.264Z,36.47
2023-08-11T12:05:09.216Z,36.00
2023-08-11T12:07:37.544Z,36.86
2023-08-11T12:10:07.798Z,35.58
2023-08-11T12:12:34.557Z,35.67
2023-08-11T12:15:03.332Z,35.23
2023-08-11T12:17:37.267Z,34.77
2023-08-11T12:20:07.760Z,35.73
2023-08-11T12:22:34.757Z,35.59
2023-08-11T12:25:01.313Z,37.07
2023-08-11T12:27:29.438Z,35.74
2023-08-11T12:29:56.107Z,35.68
2023-08-11T12:32:22.741Z,33.86
2023-08-11T12:34:49.309Z,34.80
2023-08-11T12:37:16.051Z,35.22
2023-08-11T12:39:42.634Z,35.15
2023-08-11T12:42:11.154Z,34.94
2023-08-11T12:44:39.983Z,34.13
2023-08-11T12:47:06.842Z,34.16
2023-08-11T12:49:33.436Z,34.26
2023-08-11T12:52:00.053Z,34.73
2023-08-11T12:54:26.603Z,34.87
2023-08-11T12:56:53.149Z,34.57
2023-08-11T12:59:19.715Z,35.56
2023-08-11T13:01:46.293Z,35.48
2023-08-11T13:04:12.902Z,34.86
2023-08-11T13:06:40.742Z,34.71
2023-08-11T13:09:08.611Z,33.96
2023-08-11T13:11:35.257Z,34.03
2023-08-11T13:14:02.693Z,34.59
2023-08-11T13:16:29.829Z,32.48
2023-08-11T13:18:56.459Z,33.97
2023-08-11T13:21:23.572Z,34.06
2023-08-11T13:23:50.371Z,33.61
2023-08-11T13:26:17.327Z,34.73
2023-08-11T13:28:43.960Z,33.18
2023-08-11T13:31:10.658Z,32.90
2023-08-11T13:33:37.297Z,31.65
2023-08-11T13:36:05.753Z,33.28
2023-08-11T13:38:32.712Z,32.69
2023-08-11T13:40:59.351Z,33.26
2023-08-11T13:43:25.916Z,31.93
2023-08-11T13:45:54.268Z,32.51
2023-08-11T13:48:24.503Z,33.59
2023-08-11T13:50:51.694Z,32.59
2023-08-11T13:53:18.362Z,32.40
2023-08-11T13:55:44.982Z,32.32
2023-08-11T13:58:11.537Z,31.55
2023-08-11T14:00:38.135Z,31.53
2023-08-11T14:03:05.081Z,31.68
2023-08-11T14:05:31.661Z,31.58
2023-08-11T14:07:58.262Z,31.54
2023-08-11T14:10:25.262Z,30.47
2023-08-11T14:12:51.842Z,30.83
2023-08-11T14:15:18.406Z,29.28
2023-08-11T14:17:45.035Z,30.13
2023-08-11T14:20:12.168Z,30.27
2023-08-11T14:22:38.808Z,28.01
2023-08-11T14:25:05.876Z,29.44
2023-08-11T14:27:32.479Z,29.28
2023-08-11T14:29:59.065Z,30.13
2023-08-11T14:32:26.751Z,31.26
2023-08-11T14:34:53.808Z,30.27
2023-08-11T14:37:21.864Z,27.80
2023-08-11T14:39:48.702Z,28.05
2023-08-11T14:42:15.534Z,28.33
2023-08-11T14:44:42.561Z,27.52
2023-08-11T14:47:14.150Z,28.19
2023-08-11T14:49:41.600Z,28.56
2023-08-11T14:52:08.479Z,29.08
2023-08-11T14:54:35.387Z,27.21
2023-08-11T14:57:01.965Z,27.60
2023-08-11T14:59:28.599Z,27.81
2023-08-11T15:01:55.159Z,27.72
2023-08-11T15:04:21.961Z,28.19
2023-08-11T15:06:48.494Z,27.02
2023-08-11T15:09:15.046Z,26.83
2023-08-11T15:11:41.693Z,27.22
2023-08-11T15:14:11.508Z,28.58
2023-08-11T15:16:38.326Z,28.45
2023-08-11T15:19:04.969Z,29.17
2023-08-11T15:21:31.591Z,29.67
2023-08-11T15:23:58.362Z,28.32
2023-08-11T15:26:26.263Z,29.43
2023-08-11T15:28:53.442Z,29.13
2023-08-11T15:31:20.373Z,31.15
2023-08-11T15:33:50.406Z,32.68
2023-08-11T15:36:17.045Z,34.68
2023-08-11T15:38:43.735Z,33.53
2023-08-11T15:41:10.793Z,35.75
2023-08-11T15:43:37.453Z,37.37
2023-08-11T15:46:04.626Z,35.79
2023-08-11T15:48:31.357Z,37.11
2023-08-11T15:50:57.924Z,36.76
2023-08-11T15:53:24.531Z,38.11
2023-08-11T15:55:52.017Z,38.58
2023-08-11T15:58:21.900Z,39.29
2023-08-11T16:00:49.257Z,40.35
2023-08-11T16:03:16.273Z,38.99
2023-08-11T16:05:43.977Z,39.69
2023-08-11T16:08:10.546Z,40.96
2023-08-11T16:10:40.898Z,41.66
2023-08-11T16:13:10.370Z,41.86
2023-08-11T16:15:37.621Z,40.14
2023-08-11T16:18:10.583Z,42.44
2023-08-11T16:20:37.595Z,42.80
2023-08-11T16:23:05.372Z,42.16
2023-08-11T16:25:32.483Z,41.57
2023-08-11T16:27:59.117Z,43.21
2023-08-11T16:30:26.220Z,43.64
2023-08-11T16:32:55.007Z,43.25
2023-08-11T16:35:22.436Z,44.32
2023-08-11T16:37:49.053Z,44.24
2023-08-11T16:40:15.664Z,45.30
2023-08-11T16:42:42.346Z,45.72
2023-08-11T16:45:09.490Z,45.72
2023-08-11T16:47:36.285Z,46.01
2023-08-11T16:50:02.929Z,46.66
2023-08-11T16:52:29.544Z,46.38
2023-08-11T16:54:56.632Z,46.21
2023-08-11T16:57:23.397Z,47.44
2023-08-11T16:59:50.095Z,47.99
2023-08-11T17:02:16.774Z,48.28
2023-08-11T17:04:43.389Z,47.44
2023-08-11T17:07:10.702Z,47.84
2023-08-11T17:09:37.923Z,48.85
2023-08-11T17:12:04.699Z,49.00
2023-08-11T17:14:31.268Z,49.31
2023-08-11T17:16:57.919Z,49.73
2023-08-11T17:19:24.698Z,49.71
2023-08-11T17:21:51.456Z,49.54
2023-08-11T17:24:18.060Z,50.58
2023-08-11T17:26:44.812Z,51.67
2023-08-11T17:29:11.401Z,50.48
2023-08-11T17:31:40.379Z,50.46
2023-08-11T17:34:07.421Z,50.88
2023-08-11T17:36:34.985Z,50.74
2023-08-11T17:39:01.548Z,51.32
2023-08-11T17:41:28.237Z,51.88
2023-08-11T17:43:56.306Z,51.64
2023-08-11T17:46:23.429Z,52.30
2023-08-11T17:48:53.387Z,52.33
2023-08-11T17:51:21.679Z,52.38
2023-08-11T17:53:59.716Z,52.76
2023-08-11T17:56:37.845Z,52.69
2023-08-11T17:59:05.223Z,53.24
2023-08-11T18:01:32.433Z,53.36
2023-08-11T18:04:05.298Z,53.80
2023-08-11T18:06:35.019Z,53.86
2023-08-11T18:09:02.164Z,54.09
2023-08-11T18:11:29.426Z,54.25
2023-08-11T18:13:56.729Z,54.46
2023-08-11T18:16:24.110Z,54.42
2023-08-11T18:18:52.052Z,54.72
2023-08-11T18:21:21.015Z,54.72
2023-08-11T18:23:48.520Z,55.04
2023-08-11T18:26:16.497Z,55.14
2023-08-11T18:28:43.451Z,55.29
2023-08-11T18:31:10.190Z,55.38
2023-08-11T18:33:36.831Z,55.93
2023-08-11T18:36:03.506Z,57.27
2023-08-11T18:38:32.299Z,56.67
2023-08-11T18:41:00.365Z,56.33
2023-08-11T18:43:26.988Z,57.32
2023-08-11T18:45:53.586Z,57.53
2023-08-11T18:48:20.143Z,58.57
2023-08-11T18:50:46.958Z,58.30
2023-08-11T18:53:14.024Z,58.25
2023-08-11T18:55:40.571Z,60.28
2023-08-11T18:58:07.827Z,60.67
2023-08-11T19:00:34.454Z,60.17
2023-08-11T19:03:01.127Z,60.19
2023-08-11T19:05:28.527Z,60.73
2023-08-11T19:07:55.920Z,61.02
2023-08-11T19:10:28.756Z,61.85
2023-08-11T19:12:55.367Z,61.72
2023-08-11T19:15:22.008Z,62.59
2023-08-11T19:17:48.632Z,63.16
2023-08-11T19:20:15.266Z,62.43
2023-08-11T19:22:41.958Z,62.21
2023-08-11T19:25:08.875Z,61.83
2023-08-11T19:27:35.624Z,61.45
2023-08-11T19:30:02.251Z,62.12
2023-08-11T19:32:28.970Z,62.68
2023-08-11T19:34:56.939Z,62.90
2023-08-11T19:37:23.666Z,62.88
2023-08-11T19:39:50.326Z,63.07
2023-08-11T19:42:16.916Z,63.17
2023-08-11T19:44:44.468Z,63.68
2023-08-11T19:47:11.032Z,63.64
2023-08-11T19:49:37.793Z,64.24
2023-08-11T19:52:04.566Z,63.69
2023-08-11T19:54:31.234Z,63.99
2023-08-11T19:56:57.840Z,64.28
2023-08-11T19:59:24.493Z,64.34
2023-08-11T20:01:51.235Z,63.79
2023-08-11T20:04:20.026Z,64.42
2023-08-11T20:06:46.733Z,65.07
2023-08-11T20:09:13.852Z,65.00
2023-08-11T20:11:40.422Z,65.17
2023-08-11T20:14:07.000Z,65.16
2023-08-11T20:16:33.692Z,65.35
2023-08-11T20:19:00.341Z,66.02
2023-08-11T20:21:27.013Z,65.07
2023-08-11T20:23:53.553Z,65.00
2023-08-11T20:26:20.152Z,65.79
2023-08-11T20:28:47.849Z,66.02
2023-08-11T20:31:15.196Z,66.19
2023-08-11T20:33:41.863Z,66.65
2023-08-11T20:36:08.494Z,66.18
2023-08-11T20:38:37.261Z,65.46
2023-08-11T20:41:05.751Z,66.83
2023-08-11T20:43:32.401Z,67.30
2023-08-11T20:45:58.969Z,66.58
2023-08-11T20:48:25.583Z,67.09
2023-08-11T20:50:58.170Z,66.84
2023-08-11T20:53:24.732Z,67.03
2023-08-11T20:55:51.398Z,67.46
2023-08-11T20:58:17.990Z,67.50
2023-08-11T21:00:46.200Z,67.80
2023-08-11T21:03:12.849Z,66.79
2023-08-11T21:05:42.166Z,67.27
2023-08-11T21:08:12.345Z,69.06
2023-08-11T21:10:46.276Z,68.53
2023-08-11T21:13:15.217Z,67.27
2023-08-11T21:15:42.377Z,67.45
2023-08-11T21:18:10.283Z,68.26
2023-08-11T21:20:37.400Z,67.99
2023-08-11T21:23:04.994Z,67.70
2023-08-11T21:25:32.902Z,68.42
2023-08-11T21:27:59.685Z,68.33
2023-08-11T21:30:26.612Z,68.19
2023-08-11T21:32:53.338Z,68.26
2023-08-11T21:35:22.896Z,68.71
2023-08-11T21:37:49.798Z,68.68
2023-08-11T21:40:16.608Z,68.55
2023-08-11T21:42:43.837Z,69.30
2023-08-11T21:45:11.071Z,69.08
2023-08-11T21:47:38.337Z,68.93
2023-08-11T21:50:05.534Z,69.03
2023-08-11T21:52:32.114Z,69.00
2023-08-11T21:54:58.721Z,69.10
2023-08-11T21:57:25.343Z,69.69
2023-08-11T21:59:52.118Z,69.93
2023-08-11T22:02:18.772Z,70.02
2023-08-11T22:04:48.417Z,70.14
2023-08-11T22:07:15.754Z,69.70
2023-08-11T22:09:42.917Z,70.63
2023-08-11T22:12:11.962Z,69.68
2023-08-11T22:14:39.226Z,70.26
2023-08-11T22:17:06.170Z,70.45
2023-08-11T22:19:36.094Z,70.70
2023-08-11T22:22:04.116Z,70.50
2023-08-11T22:24:39.908Z,70.38
2023-08-11T22:27:09.485Z,71.03
2023-08-11T22:29:36.489Z,71.80
2023-08-11T22:32:04.257Z,71.25
2023-08-11T22:34:31.229Z,70.15
2023-08-11T22:36:57.921Z,70.13
2023-08-11T22:39:24.521Z,71.04
2023-08-11T22:41:51.173Z,71.22
2023-08-11T22:44:17.721Z,71.28
2023-08-11T22:46:44.420Z,71.36
2023-08-11T22:49:10.976Z,71.25
2023-08-11T22:51:37.542Z,72.31
2023-08-11T22:54:04.182Z,71.63
2023-08-11T22:56:30.735Z,70.92
2023-08-11T22:58:57.322Z,71.46
2023-08-11T23:01:23.885Z,71.70
2023-08-11T23:03:50.529Z,72.33
2023-08-11T23:06:17.148Z,71.71
2023-08-11T23:08:43.758Z,71.05
2023-08-11T23:11:10.404Z,72.04
2023-08-11T23:13:37.022Z,72.09
2023-08-11T23:16:04.114Z,72.06
2023-08-11T23:18:30.761Z,71.69
2023-08-11T23:20:57.297Z,72.18
2023-08-11T23:23:23.900Z,72.74
2023-08-11T23:25:51.191Z,73.14
2023-08-11T23:28:20.120Z,74.04
2023-08-11T23:30:46.686Z,73.57
2023-08-11T23:33:14.009Z,73.12
2023-08-11T23:35:40.636Z,72.64
2023-08-11T23:38:07.436Z,72.56
2023-08-11T23:40:33.986Z,73.07
2023-08-11T23:43:00.587Z,73.57
2023-08-11T23:45:27.176Z,73.95
2023-08-11T23:47:53.938Z,73.02
2023-08-11T23:50:20.557Z,73.00
2023-08-11T23:52:47.300Z,73.01
2023-08-11T23:55:14.755Z,74.67
2023-08-11T23:57:41.910Z,74.10
